Flight Track Log - Related Links

Times and Time Zones

All times are in EDT time to prevent confusion due to time zone crossing. See the SWA1169 flight status page for this flight to view local times or setup timezone preferences in your user account.


Time Position Orientation Groundspeed Altitude Reporting Facility
EDT Latitude Longitude Course Direction KTS MPH feet Rate Location/Type
Tue 12:14:50 PM 39.1167 -76.6333 270° West 181 208 3,400  Level Potomac TRACON
Tue 12:16:21 PM 39.1036 -76.5358 100° East 244 281 6,600 2,803 Climbing Washington Center
Tue 12:17:22 PM 39.1167 -76.4450 79° East 255 293 10,500 3,174 Climbing Washington Center
Tue 12:18:22 PM 39.1319 -76.3356 80° East 279 321 13,000 2,898 Climbing Washington Center
Tue 12:19:20 PM 39.1494 -76.2178 79° East 311 358 16,200 3,126 Climbing Washington Center
Tue 12:20:00 PM 39.1667 -76.6363 270° West  Level FlightAware Approximate
Tue 12:20:21 PM 39.1686 -76.0789 80° East 340 391 19,200  Level Washington Center
Tue 12:21:21 PM 39.1858 -75.9478 80° East 360 414 21,700 2,331 Climbing Washington Center
Tue 12:22:22 PM 39.2361 -75.8247 62° Northeast 376 433 23,900 2,420 Climbing Washington Center
Tue 12:23:20 PM 39.3197 -75.7178 45° Northeast 388 447 26,500 2,339 Climbing Washington Center
Tue 12:24:20 PM 39.4031 -75.6103 45° Northeast 399 459 28,500 1,835 Climbing Washington Center
Tue 12:25:21 PM 39.4864 -75.5028 45° Northeast 411 473 30,200 1,672 Climbing Washington Center
Tue 12:26:22 PM 39.5739 -75.3869 46° Northeast 424 488 31,900 1,636 Climbing Washington Center
Tue 12:27:22 PM 39.6611 -75.2708 46° Northeast 430 495 33,500 1,500 Climbing Washington Center
Tue 12:28:18 PM 39.7381 -75.1578 48° Northeast 464 534 34,800 1,368 Climbing New York Center
Tue 12:29:16 PM 39.8239 -75.0361 47° Northeast 470 541 36,100 1,109 Climbing New York Center
Tue 12:30:17 PM 39.9136 -74.9117 47° Northeast 470 541 37,000 446 Climbing New York Center
Tue 12:31:17 PM 39.9903 -74.8078 46° Northeast 465 535 37,000 -150 Level New York Center
Tue 12:32:17 PM 40.0736 -74.6878 48° Northeast 449 517 36,700 -2,975 Descending New York Center
Tue 12:33:18 PM 40.1656 -74.5492 49° Northeast 449 517 31,000 -1,033 Descending New York Center
Tue 12:34:19 PM 40.2783 -74.4764 26° Northeast 449 517 34,600 1,289 Climbing New York Center
Tue 12:35:19 PM 40.4067 -74.4425 11° North 452 520 33,600 -1,008 Descending New York Center
Tue 12:36:18 PM 40.5325 -74.4108 11° North 452 520 32,600 -1,000 Descending New York Center
Tue 12:37:19 PM 40.6544 -74.3764 12° North 447 514 31,600 -582 Descending New York Center
Tue 12:39:03 PM 40.8569 -74.3308 10° North 438 504 31,000 -220 Descending Boston Center
Tue 12:40:03 PM 40.9761 -74.2986 12° North 433 498 31,000  Level Boston Center
Tue 12:41:03 PM 41.0978 -74.2636 12° North 433 498 31,000  Level Boston Center
Tue 12:42:03 PM 41.2169 -74.2311 12° North 433 498 31,000  Level Boston Center
Tue 12:43:03 PM 41.3489 -74.1933 12° North 433 498 31,000  Level Boston Center
Tue 12:44:03 PM 41.4683 -74.1606 12° North 427 491 31,000  Level Boston Center
Tue 12:45:03 PM 41.5728 -74.1328 11° North 433 498 31,000  Level Boston Center
Tue 12:46:03 PM 41.6942 -74.0997 11° North 433 498 31,000 -500 Level Boston Center
Tue 12:47:03 PM 41.7875 -73.9936 40° Northeast 422 486 30,000 -1,050 Descending Boston Center
Tue 12:48:03 PM 41.8683 -73.8564 52° Northeast 410 472 28,900 -1,000 Descending Boston Center
Tue 12:49:03 PM 41.9469 -73.7297 50° Northeast 424 488 28,000 -950 Descending Boston Center
Tue 12:50:03 PM 42.0233 -73.6028 51° Northeast 436 502 27,000 -500 Descending Boston Center
Tue 12:51:03 PM 42.0956 -73.4808 51° Northeast 443 510 27,000 -250 Level Boston Center
Tue 12:52:03 PM 42.1758 -73.3478 51° Northeast 443 510 26,500 -750 Descending Boston Center
Tue 12:53:03 PM 42.2519 -73.2197 51° Northeast 428 493 25,500 -1,000 Descending Boston Center
Tue 12:54:03 PM 42.3297 -73.0889 51° Northeast 433 498 24,500 -950 Descending Boston Center
Tue 12:55:03 PM 42.4056 -72.9547 53° Northeast 446 513 23,600 -950 Descending Boston Center
Tue 12:56:03 PM 42.4811 -72.8286 51° Northeast 440 506 22,600 -1,050 Descending Boston Center
Tue 12:57:03 PM 42.5544 -72.6967 53° Northeast 430 495 21,500 -800 Descending Boston Center
Tue 12:58:03 PM 42.6253 -72.5981 46° Northeast 414 476 21,000 -250 Descending Boston Center
Tue 12:59:03 PM 42.6881 -72.4908 51° Northeast 394 453 21,000 -1,400 Level Boston Center
Tue 01:00:03 PM 42.7464 -72.3778 55° Northeast 375 432 18,200 -3,250 Descending Boston Center
Tue 01:01:03 PM 42.7961 -72.2364 64° Northeast 370 426 14,500 -3,300 Descending Boston Center
Tue 01:02:03 PM 42.8106 -72.0975 82° East 363 418 11,600 -2,200 Descending Boston Center
Tue 01:03:03 PM 42.8433 -71.9758 70° East 349 402 10,100 -1,400 Descending Boston Center
Tue 01:04:03 PM 42.8783 -71.8733 65° Northeast 310 357 8,800 -2,000 Descending Boston Center
Tue 01:05:03 PM 42.9111 -71.7853 63° Northeast 273 314 6,100 -2,400 Descending Boston Center
Tue 01:06:03 PM 42.9439 -71.6969 63° Northeast 259 298 4,000 -1,200 Descending Boston Center
Tue 01:07:03 PM 42.9686 -71.6314 63° Northeast 210 242 3,700 -650 Descending Boston Center
Tue 01:08:03 PM 42.9911 -71.5717 63° Northeast 186 214 2,700 -900 Descending Boston Center
Tue 01:09:03 PM 43.0094 -71.5144 66° East 159 183 1,900 -600 Descending Boston Center
Tue 01:10:03 PM 42.9964 -71.4692 112° Southeast 134 154 1,500 -650 Descending Boston Center
Tue 01:11:03 PM 42.9608 -71.4528 161° South 128 147 600 -600 Descending Boston Center
Tue 01:12:03 PM 42.9272 -71.4278 151° Southeast 133 153 300 4,200 Descending Boston Center
Tue 01:13:03 PM 42.9022 -71.4111 154° Southeast 133 153 9,000 4,350 Climbing Boston Center
Tue 01:14:03 PM 42.8644 -71.3864 154° Southeast 133 153 9,000  Level Boston Center
Tue 01:15:03 PM 42.8331 -71.3669 156° South 133 153 9,000  Level Boston Center

Login

Don't have an account? Register now (free) for customized features, flight alerts, and more!